KCDC/CDC METAR and TAF weather

Enter ICAO airport designator
Station Type Date Time Source
KCDC METAR 2019/09/21 04:53 UTC NOAA

KCDC 210453Z AUTO 36007KT 10SM CLR 08/M03 A3008 RMK AO2 SLP152 T00831028


Station Type Date Time Source
KCDC Decoded METAR 2019/09/21 04:53 UTC NOAA

CEDAR CITY MUN AIRPORT, UT, United States (KCDC) 37-42N 113-06W 1714M
Sep 21, 2019 - 12:53 AM EDT / 2019.09.21 0453 UTC
Wind: from the N (360 degrees) at 8 MPH (7 KT):0
Visibility: 10 mile(s):0
Sky conditions: clear
Temperature: 46.9 F (8.3 C)
Dew Point: 27.0 F (-2.8 C)
Relative Humidity: 45%
Pressure (altimeter): 30.08 in. Hg (1018 hPa)
ob: KCDC 210453Z AUTO 36007KT 10SM CLR 08/M03 A3008 RMK AO2 SLP152 T00831028
cycle: 5

Station Type Date Time Source
KCDC TAF 2019/09/20 20:59 UTC NOAA

TAF
AMD KCDC 201959Z 2020/2118 VRB05KT P6SM SKC
FM202100 27008G15KT P6SM SKC
FM210200 03005KT P6SM SKC
FM211730 36006KT P6SM SKC

Example: see airport list